Airfield :
LOGIN :

Register | Disclaimer

   EN    FR    IT 

 










Legend :    VFR   Marginal VFR   IFR   Intensive IFR   Very Intensive IFR
Visi :
Ceiling :
>= 8 km
>= 3000ft
5 to 8 km
1000 to 3000 ft
1500m to 5 km
500 to 1000 ft
800 to 1500m
200 to 500 ft
< 800m
< 200 ft
Symbols :   Thunderstorms  Fog  Heavy snow  Heavy precipitations  Wind > 20 kt
SIGMETs :     Misc.  Thunderstorms  Icing  Turbulence  Mountain Waves  Volcanic Ashes






- Airport Elevation : 1260 ft
- IATA code : LDE


LFBT - Tarbes / Ossun

CURRENT METAR :
  • 051830Z AUTO 24005KT 9999 FEW033 OVC074 12/08 Q1019 TEMPO SHRA SCT020TCU

EXPIRED METARs :
  • 051800Z AUTO 26005KT 9000 SCT030 SCT047 OVC070 12/08 Q1019 TEMPO SHRA SCT020TCU
  • 051730Z AUTO 27006KT 9000 FEW024/// SCT056/// OVC070/// ///TCU 12/08 Q1019 BECMG BKN025
  • 051700Z AUTO 28004KT 240V310 9999 FEW023 SCT029 BKN047 13/08 Q1019 TEMPO SHRA SCT020CB BKN025
  • 051630Z AUTO 26005KT 230V290 9999 FEW021 OVC056 13/08 Q1018 TEMPO SHRA SCT020CB BKN025

TAF TAF LFBT
Valid from the 05 at 18:00 until the 06 at 18:00 UTC


051700Z 0518/0618 VRB03KT 9999 BKN025
TEMPO 0518/0524 SHRA SCT020TCU
BECMG 0603/0605 2000 BR BKN003 BKN025
BECMG 0606/0608 9999 NSW BKN020
TEMPO 0609/0618 SHRA BKN015 SCT045CB



MET'MAP, your aeronautical weather chart ! - Copyright ORBIFLY December 2007 - Disclaimer

ORBIFLY MET'MAP TEAM :

Programming & Development : Alexandra Zaïnal
Concept & original design : Baudouin d'Aumeries
Assistance for programming : Marc-Olivier Méhu
Technical & hardware support : Manuel Goepfert

Contact : metmap@orbifly.com




SOURCES & CREDITS :

   NOAA